createdAt,value
2018-08-23T00:02:07.324Z,95465.05
2018-08-23T00:04:33.313Z,95462.28
2018-08-23T00:06:59.292Z,95461.30
2018-08-23T00:09:25.279Z,95467.24
2018-08-23T00:11:51.262Z,95460.32
2018-08-23T00:14:17.241Z,95465.28
2018-08-23T00:16:43.253Z,95464.88
2018-08-23T00:19:09.240Z,95462.52
2018-08-23T00:21:35.214Z,95460.32
2018-08-23T00:24:01.202Z,95459.91
2018-08-23T00:26:27.217Z,95461.30
2018-08-23T00:28:53.194Z,95452.02
2018-08-23T00:31:19.172Z,95451.03
2018-08-23T00:33:45.156Z,95443.30
2018-08-23T00:36:11.135Z,95443.30
2018-08-23T00:38:37.109Z,95447.05
2018-08-23T00:41:03.089Z,95442.31
2018-08-23T00:43:29.072Z,95449.64
2018-08-23T00:45:55.059Z,95447.86
2018-08-23T00:48:21.079Z,95453.39
2018-08-23T00:50:47.053Z,95451.61
2018-08-23T00:53:13.033Z,95453.57
2018-08-23T00:55:39.010Z,95456.74
2018-08-23T00:58:04.992Z,95457.55
2018-08-23T01:00:30.961Z,95457.72
2018-08-23T01:02:56.941Z,95455.36
2018-08-23T01:05:22.926Z,95453.97
2018-08-23T01:07:48.901Z,95448.63
2018-08-23T01:10:14.901Z,95451.20
2018-08-23T01:12:40.876Z,95449.41
2018-08-23T01:15:06.858Z,95448.03
2018-08-23T01:17:32.830Z,95446.06
2018-08-23T01:19:58.816Z,95447.45
2018-08-23T01:22:24.790Z,95444.69
2018-08-23T01:24:50.770Z,95440.93
2018-08-23T01:27:16.744Z,95434.17
2018-08-23T01:29:42.774Z,95433.20
2018-08-23T01:32:08.737Z,95432.80
2018-08-23T01:34:34.717Z,95431.81
2018-08-23T01:37:00.693Z,95433.00
2018-08-23T01:39:26.664Z,95435.56
2018-08-23T01:41:52.644Z,95430.42
2018-08-23T01:44:18.670Z,95430.42
2018-08-23T01:46:44.644Z,95428.64
2018-08-23T01:49:10.624Z,95425.29
2018-08-23T01:51:36.642Z,95417.19
2018-08-23T01:54:02.635Z,95419.55
2018-08-23T01:56:28.610Z,95412.02
2018-08-23T01:58:54.598Z,95416.78
2018-08-23T02:01:20.577Z,95408.88
2018-08-23T02:03:46.560Z,95409.86
2018-08-23T02:06:12.536Z,95409.66
2018-08-23T02:08:38.522Z,95405.91
2018-08-23T02:11:04.492Z,95404.31
2018-08-23T02:13:30.469Z,95407.09
2018-08-23T02:15:56.440Z,95404.31
2018-08-23T02:18:22.417Z,95404.89
2018-08-23T02:20:48.396Z,95401.55
2018-08-23T02:23:14.368Z,95405.70
2018-08-23T02:25:40.348Z,95403.71
2018-08-23T02:28:06.325Z,95403.34
2018-08-23T02:30:32.306Z,95408.88
2018-08-23T02:32:58.325Z,95413.41
2018-08-23T02:35:24.302Z,95408.47
2018-08-23T02:37:50.279Z,95407.86
2018-08-23T02:40:16.298Z,95409.25
2018-08-23T02:42:42.270Z,95405.70
2018-08-23T02:45:08.300Z,95412.02
2018-08-23T02:47:34.320Z,95402.12
2018-08-23T02:50:00.298Z,95411.24
2018-08-23T02:52:26.285Z,95421.92
2018-08-23T02:54:52.265Z,95419.15
2018-08-23T02:57:18.244Z,95425.50
2018-08-23T02:59:44.222Z,95424.69
2018-08-23T03:02:10.210Z,95424.69
2018-08-23T03:04:36.187Z,95424.28
2018-08-23T03:07:02.172Z,95419.15
2018-08-23T03:09:28.183Z,95421.52
2018-08-23T03:11:54.160Z,95421.52
2018-08-23T03:14:20.134Z,95417.94
2018-08-23T03:16:46.108Z,95421.52
2018-08-23T03:19:12.092Z,95422.09
2018-08-23T03:21:38.084Z,95430.80
2018-08-23T03:24:04.078Z,95430.40
2018-08-23T03:26:30.048Z,95420.70
2018-08-23T03:28:56.031Z,95428.03
2018-08-23T03:31:22.014Z,95434.55
2018-08-23T03:33:47.992Z,95434.95
2018-08-23T03:36:13.972Z,95437.16
2018-08-23T03:38:39.946Z,95437.73
2018-08-23T03:41:05.925Z,95433.98
2018-08-23T03:43:31.900Z,95430.80
2018-08-23T03:45:57.876Z,95433.57
2018-08-23T03:48:23.878Z,95434.55
2018-08-23T03:50:49.857Z,95435.94
2018-08-23T03:53:15.847Z,95438.30
2018-08-23T03:55:41.844Z,95442.09
2018-08-23T03:58:07.825Z,95436.55
2018-08-23T04:00:33.800Z,95436.55
2018-08-23T04:02:59.781Z,95442.46
2018-08-23T04:05:25.774Z,95440.09
2018-08-23T04:07:51.750Z,95435.94
2018-08-23T04:10:17.739Z,95443.47
2018-08-23T04:12:43.720Z,95445.84
2018-08-23T04:15:09.704Z,95444.86
2018-08-23T04:17:35.685Z,95456.91
2018-08-23T04:20:01.681Z,95460.46
2018-08-23T04:22:27.653Z,95463.84
2018-08-23T04:24:53.642Z,95465.63
2018-08-23T04:27:19.623Z,95462.86
2018-08-23T04:29:45.601Z,95460.87
2018-08-23T04:32:11.587Z,95466.20
2018-08-23T04:34:37.575Z,95465.23
2018-08-23T04:37:03.558Z,95468.77
2018-08-23T04:39:29.543Z,95472.55
2018-08-23T04:41:55.526Z,95477.69
2018-08-23T04:44:21.505Z,95472.16
2018-08-23T04:46:47.481Z,95472.73
2018-08-23T04:49:13.448Z,95470.77
2018-08-23T04:51:39.434Z,95471.34
2018-08-23T04:54:05.404Z,95472.33
2018-08-23T04:56:31.381Z,95481.03
2018-08-23T04:58:57.354Z,95475.50
2018-08-23T05:01:23.332Z,95483.80
2018-08-23T05:03:49.327Z,95481.44
2018-08-23T05:06:15.301Z,95477.28
2018-08-23T05:08:41.280Z,95481.03
2018-08-23T05:11:07.256Z,95487.55
2018-08-23T05:13:33.238Z,95492.52
2018-08-23T05:15:59.227Z,95479.66
2018-08-23T05:18:25.219Z,95483.80
2018-08-23T05:20:51.194Z,95483.00
2018-08-23T05:23:17.189Z,95483.98
2018-08-23T05:25:43.160Z,95484.78
2018-08-23T05:28:09.148Z,95483.00
2018-08-23T05:30:35.161Z,95482.59
2018-08-23T05:33:01.140Z,95480.63
2018-08-23T05:35:27.121Z,95484.78
2018-08-23T05:37:53.105Z,95480.23
2018-08-23T05:40:19.090Z,95477.86
2018-08-23T05:42:45.056Z,95478.84
2018-08-23T05:45:11.039Z,95478.84
2018-08-23T05:47:37.075Z,95476.69
2018-08-23T05:50:03.032Z,95483.41
2018-08-23T05:52:29.048Z,95476.08
2018-08-23T05:54:55.010Z,95481.21
2018-08-23T05:57:20.990Z,95478.44
2018-08-23T05:59:46.965Z,95478.84
2018-08-23T06:02:12.949Z,95477.05
2018-08-23T06:04:38.932Z,95480.23
2018-08-23T06:07:04.943Z,95475.67
2018-08-23T06:09:30.890Z,95473.30
2018-08-23T06:11:56.877Z,95473.30
2018-08-23T06:14:22.863Z,95471.52
2018-08-23T06:16:48.854Z,95469.15
2018-08-23T06:19:14.842Z,95465.40
2018-08-23T06:21:40.857Z,95468.17
2018-08-23T06:24:06.840Z,95467.77
2018-08-23T06:26:32.812Z,95463.20
2018-08-23T06:28:58.801Z,95461.45
2018-08-23T06:31:24.794Z,95462.42
2018-08-23T06:33:50.868Z,95458.67
2018-08-23T06:36:16.749Z,95456.28
2018-08-23T06:38:42.858Z,95453.14
2018-08-23T06:41:08.714Z,95455.91
2018-08-23T06:43:34.694Z,95462.22
2018-08-23T06:46:00.684Z,95461.82
2018-08-23T06:48:26.662Z,95455.91
2018-08-23T06:50:52.637Z,95459.45
2018-08-23T06:53:18.623Z,95461.25
2018-08-23T06:55:44.610Z,95463.03
2018-08-23T06:58:10.582Z,95468.57
2018-08-23T07:00:36.573Z,95469.55
2018-08-23T07:03:02.553Z,95466.37
2018-08-23T07:05:28.547Z,95464.02
2018-08-23T07:07:54.510Z,95469.55
2018-08-23T07:10:20.522Z,95472.33
2018-08-23T07:12:46.476Z,95468.00
2018-08-23T07:15:12.449Z,95469.78
2018-08-23T07:17:38.528Z,95468.98
2018-08-23T07:20:04.405Z,95466.20
2018-08-23T07:22:30.451Z,95463.03
2018-08-23T07:24:56.392Z,95463.61
2018-08-23T07:27:22.368Z,95464.42
2018-08-23T07:29:48.375Z,95461.25
2018-08-23T07:32:14.335Z,95458.48
2018-08-23T07:34:40.313Z,95461.25
2018-08-23T07:37:06.309Z,95459.45
2018-08-23T07:39:32.296Z,95460.84
2018-08-23T07:41:58.314Z,95458.48
2018-08-23T07:44:24.338Z,95457.09
2018-08-23T07:46:50.321Z,95458.87
2018-08-23T07:49:16.319Z,95456.69
2018-08-23T07:51:42.265Z,95453.74
2018-08-23T07:54:08.242Z,95445.03
2018-08-23T07:56:34.224Z,95449.76
2018-08-23T07:59:00.244Z,95448.61
2018-08-23T08:01:26.194Z,95445.44
2018-08-23T08:03:52.176Z,95441.28
2018-08-23T08:06:18.159Z,95443.06
2018-08-23T08:08:44.136Z,95443.64
2018-08-23T08:11:10.116Z,95434.93
2018-08-23T08:13:36.098Z,95438.10
2018-08-23T08:16:02.082Z,95438.51
2018-08-23T08:18:28.071Z,95437.53
2018-08-23T08:20:54.082Z,95436.14
2018-08-23T08:23:20.022Z,95436.55
2018-08-23T08:25:46.005Z,95433.78
2018-08-23T08:28:12.002Z,95436.92
2018-08-23T08:30:37.981Z,95438.30
2018-08-23T08:33:04.046Z,95428.00
2018-08-23T08:35:29.981Z,95435.16
2018-08-23T08:37:55.955Z,95430.00
2018-08-23T08:40:21.959Z,95424.08
2018-08-23T08:42:47.940Z,95423.88
2018-08-23T08:45:13.910Z,95422.49
2018-08-23T08:47:39.894Z,95420.53
2018-08-23T08:50:05.889Z,95420.53
2018-08-23T08:52:31.873Z,95421.11
2018-08-23T08:54:57.855Z,95414.99
2018-08-23T08:57:23.840Z,95403.11
2018-08-23T08:59:49.833Z,95412.63
2018-08-23T09:02:15.810Z,95410.63
2018-08-23T09:04:41.787Z,95406.48
2018-08-23T09:07:07.807Z,95407.86
2018-08-23T09:09:33.782Z,95397.59
2018-08-23T09:11:59.774Z,95399.95
2018-08-23T09:14:25.764Z,95395.23
2018-08-23T09:16:51.745Z,95395.63
2018-08-23T09:19:17.728Z,95397.83
2018-08-23T09:21:43.706Z,95389.71
2018-08-23T09:24:09.689Z,95387.12
2018-08-23T09:26:35.674Z,95391.67
2018-08-23T09:29:01.673Z,95388.13
2018-08-23T09:31:27.694Z,95386.75
2018-08-23T09:33:53.715Z,95390.11
2018-08-23T09:36:19.693Z,95378.63
2018-08-23T09:38:45.671Z,95378.05
2018-08-23T09:41:11.653Z,95371.12
2018-08-23T09:43:37.630Z,95372.92
2018-08-23T09:46:03.627Z,95375.69
2018-08-23T09:48:29.606Z,95371.70
2018-08-23T09:50:55.691Z,95374.30
2018-08-23T09:53:21.567Z,95370.34
2018-08-23T09:55:47.548Z,95373.12
2018-08-23T09:58:13.607Z,95368.97
2018-08-23T10:00:39.551Z,95371.73
2018-08-23T10:03:05.529Z,95364.64
2018-08-23T10:05:31.539Z,95366.59
2018-08-23T10:07:57.482Z,95363.25
2018-08-23T10:10:23.457Z,95360.48
2018-08-23T10:12:49.437Z,95355.72
2018-08-23T10:15:15.414Z,95352.55
2018-08-23T10:17:41.398Z,95351.16
2018-08-23T10:20:07.373Z,95345.62
2018-08-23T10:22:33.393Z,95347.41
2018-08-23T10:24:59.377Z,95351.97
2018-08-23T10:27:25.348Z,95347.23
2018-08-23T10:29:51.351Z,95341.69
2018-08-23T10:32:17.456Z,95343.48
2018-08-23T10:34:43.367Z,95339.91
2018-08-23T10:37:09.383Z,95339.73
2018-08-23T10:39:35.424Z,95331.02
2018-08-23T10:42:01.382Z,95332.00
2018-08-23T10:44:27.363Z,95331.79
2018-08-23T10:46:53.340Z,95331.62
2018-08-23T10:49:19.347Z,95328.44
2018-08-23T10:51:45.352Z,95324.28
2018-08-23T10:54:11.373Z,95320.71
2018-08-23T10:56:37.387Z,95328.04
2018-08-23T10:59:03.461Z,95316.55
2018-08-23T11:01:29.369Z,95320.13
2018-08-23T11:03:55.382Z,95310.23
2018-08-23T11:06:21.371Z,95311.02
2018-08-23T11:08:47.412Z,95300.16
2018-08-23T11:11:13.388Z,95300.16
2018-08-23T11:13:39.361Z,95300.57
2018-08-23T11:16:05.405Z,95293.23
2018-08-23T11:18:31.423Z,95289.08
2018-08-23T11:20:57.431Z,95284.75
2018-08-23T11:23:23.411Z,95285.91
2018-08-23T11:25:49.415Z,95285.33
2018-08-23T11:28:15.477Z,95283.37
2018-08-23T11:30:41.486Z,95278.61
2018-08-23T11:33:07.463Z,95279.98
2018-08-23T11:35:33.483Z,95277.83
2018-08-23T11:37:59.462Z,95279.01
2018-08-23T11:40:25.516Z,95273.29
2018-08-23T11:42:51.566Z,95263.59
2018-08-23T11:45:17.496Z,95254.88
2018-08-23T11:47:43.512Z,95264.98
2018-08-23T11:50:09.494Z,95264.98
2018-08-23T11:52:35.474Z,95259.84
2018-08-23T11:55:01.459Z,95258.83
2018-08-23T11:57:27.473Z,95254.30
2018-08-23T11:59:53.487Z,95254.09
2018-08-23T12:02:19.466Z,95249.13
2018-08-23T12:04:45.445Z,95251.73
2018-08-23T12:07:11.416Z,95244.00
2018-08-23T12:09:37.436Z,95235.28
2018-08-23T12:12:03.456Z,95240.24
2018-08-23T12:14:29.475Z,95241.84
2018-08-23T12:16:55.462Z,95237.28
2018-08-23T12:19:21.443Z,95236.30
2018-08-23T12:21:47.413Z,95241.62
2018-08-23T12:24:13.430Z,95234.70
2018-08-23T12:26:39.412Z,95232.92
2018-08-23T12:29:05.392Z,95234.91
2018-08-23T12:31:31.391Z,95237.30
2018-08-23T12:33:57.360Z,95226.20
2018-08-23T12:36:23.344Z,95227.78
2018-08-23T12:38:49.342Z,95228.18
2018-08-23T12:41:15.356Z,95220.05
2018-08-23T12:43:41.366Z,95217.68
2018-08-23T12:46:07.379Z,95217.89
2018-08-23T12:48:33.382Z,95212.55
2018-08-23T12:50:59.397Z,95214.33
2018-08-23T12:53:25.510Z,95203.66
2018-08-23T12:55:51.402Z,95199.67
2018-08-23T12:58:17.445Z,95197.30
2018-08-23T13:00:43.457Z,95194.94
2018-08-23T13:03:09.434Z,95192.17
2018-08-23T13:05:35.451Z,95194.53
2018-08-23T13:08:01.431Z,95188.99
2018-08-23T13:10:27.449Z,95189.80
2018-08-23T13:12:53.427Z,95193.95
2018-08-23T13:15:19.405Z,95190.78
2018-08-23T13:17:45.394Z,95186.45
2018-08-23T13:20:11.413Z,95185.65
2018-08-23T13:22:37.423Z,95184.84
2018-08-23T13:25:03.435Z,95179.70
2018-08-23T13:27:29.527Z,95190.78
2018-08-23T13:29:55.591Z,95176.13
2018-08-23T13:32:21.557Z,95176.93
2018-08-23T13:34:47.500Z,95177.91
2018-08-23T13:37:13.524Z,95179.88
2018-08-23T13:39:39.500Z,95168.22
2018-08-23T13:42:05.485Z,95176.53
2018-08-23T13:44:31.521Z,95166.03
2018-08-23T13:46:57.496Z,95173.76
2018-08-23T13:49:23.470Z,95178.90
2018-08-23T13:51:49.450Z,95174.16
2018-08-23T13:54:15.466Z,95177.91
2018-08-23T13:56:41.485Z,95174.56
2018-08-23T13:59:07.560Z,95167.23
2018-08-23T14:01:33.486Z,95166.83
2018-08-23T14:03:59.496Z,95171.80
2018-08-23T14:06:25.541Z,95163.48
2018-08-23T14:08:51.484Z,95173.36
2018-08-23T14:11:17.495Z,95171.39
2018-08-23T14:13:43.519Z,95170.41
2018-08-23T14:16:09.499Z,95173.98
2018-08-23T14:18:35.478Z,95171.39
2018-08-23T14:21:01.570Z,95167.64
2018-08-23T14:23:27.581Z,95164.87
2018-08-23T14:25:53.597Z,95167.06
2018-08-23T14:28:19.591Z,95173.76
2018-08-23T14:30:45.563Z,95169.42
2018-08-23T14:33:11.609Z,95156.16
2018-08-23T14:35:37.578Z,95165.67
2018-08-23T14:38:03.581Z,95164.29
2018-08-23T14:40:29.638Z,95164.87
2018-08-23T14:42:55.574Z,95164.47
2018-08-23T14:45:21.546Z,95162.50
2018-08-23T14:47:47.555Z,95162.50
2018-08-23T14:50:13.555Z,95163.28
2018-08-23T14:52:39.564Z,95167.06
2018-08-23T14:55:05.605Z,95156.75
2018-08-23T14:57:31.549Z,95155.59
2018-08-23T14:59:57.532Z,95156.38
2018-08-23T15:02:23.534Z,95157.17
2018-08-23T15:04:49.524Z,95149.27
2018-08-23T15:07:15.545Z,95145.71
2018-08-23T15:09:41.565Z,95154.42
2018-08-23T15:12:07.521Z,95146.52
2018-08-23T15:14:33.529Z,95156.03
2018-08-23T15:16:59.501Z,95154.27
2018-08-23T15:19:25.532Z,95148.73
2018-08-23T15:21:51.477Z,95148.12
2018-08-23T15:24:17.455Z,95148.75
2018-08-23T15:26:43.527Z,95145.77
2018-08-23T15:29:09.460Z,95147.78
2018-08-23T15:31:35.439Z,95145.78
2018-08-23T15:34:01.418Z,95138.87
2018-08-23T15:36:27.403Z,95141.47
2018-08-23T15:38:53.388Z,95148.41
2018-08-23T15:41:19.428Z,95141.69
2018-08-23T15:43:45.414Z,95135.97
2018-08-23T15:46:11.391Z,95132.21
2018-08-23T15:48:37.384Z,95125.48
2018-08-23T15:51:03.353Z,95125.70
2018-08-23T15:53:29.330Z,95131.03
2018-08-23T15:55:55.444Z,95135.82
2018-08-23T15:58:21.319Z,95131.45
2018-08-23T16:00:47.295Z,95133.84
2018-08-23T16:03:13.303Z,95128.70
2018-08-23T16:05:39.365Z,95128.70
2018-08-23T16:08:05.278Z,95128.92
2018-08-23T16:10:31.257Z,95123.58
2018-08-23T16:12:57.241Z,95129.92
2018-08-23T16:15:23.229Z,95129.17
2018-08-23T16:17:49.209Z,95123.05
2018-08-23T16:20:15.191Z,95131.10
2018-08-23T16:22:41.166Z,95132.17
2018-08-23T16:25:07.256Z,95132.36
2018-08-23T16:27:33.132Z,95131.16
2018-08-23T16:29:59.122Z,95129.19
2018-08-23T16:32:25.109Z,95130.97
2018-08-23T16:34:51.122Z,95132.77
2018-08-23T16:37:17.077Z,95125.43
2018-08-23T16:39:43.064Z,95119.70
2018-08-23T16:42:09.037Z,95126.02
2018-08-23T16:44:35.029Z,95127.80
2018-08-23T16:47:01.057Z,95129.39
2018-08-23T16:49:27.016Z,95131.94
2018-08-23T16:51:53.024Z,95128.19
2018-08-23T16:54:19.029Z,95130.91
2018-08-23T16:56:45.007Z,95125.95
2018-08-23T16:59:11.022Z,95133.86
2018-08-23T17:01:37.003Z,95132.28
2018-08-23T17:04:03.037Z,95132.45
2018-08-23T17:06:28.978Z,95133.84
2018-08-23T17:08:54.954Z,95135.61
2018-08-23T17:11:20.940Z,95131.84
2018-08-23T17:13:46.962Z,95136.00
2018-08-23T17:16:12.936Z,95138.77
2018-08-23T17:18:38.960Z,95143.31
2018-08-23T17:21:04.905Z,95143.31
2018-08-23T17:23:30.891Z,95144.70
2018-08-23T17:25:56.861Z,95151.80
2018-08-23T17:28:22.847Z,95141.33
2018-08-23T17:30:48.876Z,95147.86
2018-08-23T17:33:14.812Z,95146.24
2018-08-23T17:35:40.798Z,95152.59
2018-08-23T17:38:06.790Z,95155.16
2018-08-23T17:40:32.784Z,95155.75
2018-08-23T17:42:58.772Z,95159.09
2018-08-23T17:45:24.752Z,95163.83
2018-08-23T17:47:50.882Z,95170.76
2018-08-23T17:50:16.872Z,95169.18
2018-08-23T17:52:42.868Z,95182.45
2018-08-23T17:55:08.849Z,95182.23
2018-08-23T17:57:34.853Z,95180.84
2018-08-23T18:00:00.830Z,95187.98
2018-08-23T18:02:26.844Z,95182.03
2018-08-23T18:04:52.851Z,95188.16
2018-08-23T18:07:18.829Z,95196.47
2018-08-23T18:09:44.810Z,95190.52
2018-08-23T18:12:10.804Z,95196.47
2018-08-23T18:14:36.795Z,95191.09
2018-08-23T18:17:02.795Z,95192.87
2018-08-23T18:19:28.788Z,95197.83
2018-08-23T18:21:54.791Z,95192.87
2018-08-23T18:24:20.769Z,95193.85
2018-08-23T18:26:46.747Z,95197.42
2018-08-23T18:29:12.773Z,95197.42
2018-08-23T18:31:38.728Z,95200.41
2018-08-23T18:34:04.728Z,95201.39
2018-08-23T18:36:30.702Z,95202.77
2018-08-23T18:38:56.677Z,95200.00
2018-08-23T18:41:22.650Z,95203.17
2018-08-23T18:43:48.649Z,95204.73
2018-08-23T18:46:14.649Z,95205.72
2018-08-23T18:48:40.640Z,95209.68
2018-08-23T18:51:06.630Z,95203.93
2018-08-23T18:53:32.623Z,95203.53
2018-08-23T18:55:58.617Z,95202.95
2018-08-23T18:58:24.593Z,95194.03
2018-08-23T19:00:50.578Z,95197.79
2018-08-23T19:03:16.557Z,95198.20
2018-08-23T19:05:42.589Z,95192.83
2018-08-23T19:08:08.524Z,95197.79
2018-08-23T19:10:34.519Z,95202.92
2018-08-23T19:13:00.511Z,95196.80
2018-08-23T19:15:26.485Z,95197.79
2018-08-23T19:17:52.462Z,95204.31
2018-08-23T19:20:18.453Z,95208.47
2018-08-23T19:22:44.422Z,95204.31
2018-08-23T19:25:10.544Z,95202.13
2018-08-23T19:27:36.384Z,95206.28
2018-08-23T19:30:02.367Z,95217.77
2018-08-23T19:32:28.363Z,95215.98
2018-08-23T19:34:54.344Z,95221.52
2018-08-23T19:37:20.322Z,95222.13
2018-08-23T19:39:46.313Z,95228.07
2018-08-23T19:42:12.309Z,95230.03
2018-08-23T19:44:38.305Z,95233.61
2018-08-23T19:47:04.300Z,95231.42
2018-08-23T19:49:30.272Z,95226.28
2018-08-23T19:51:56.270Z,95229.05
2018-08-23T19:54:22.245Z,95229.23
2018-08-23T19:56:48.245Z,95227.84
2018-08-23T19:59:14.229Z,95231.59
2018-08-23T20:01:40.222Z,95230.20
2018-08-23T20:04:06.237Z,95232.58
2018-08-23T20:06:32.314Z,95234.36
2018-08-23T20:08:58.220Z,95231.02
2018-08-23T20:11:24.221Z,95235.34
2018-08-23T20:13:50.203Z,95241.70
2018-08-23T20:16:16.211Z,95230.82
2018-08-23T20:18:42.185Z,95238.12
2018-08-23T20:21:08.160Z,95229.80
2018-08-23T20:23:34.154Z,95235.34
2018-08-23T20:26:00.149Z,95237.34
2018-08-23T20:28:26.148Z,95233.59
2018-08-23T20:30:52.184Z,95230.42
2018-08-23T20:33:18.160Z,95226.84
2018-08-23T20:35:44.177Z,95231.00
2018-08-23T20:38:10.153Z,95235.55
2018-08-23T20:40:36.143Z,95237.34
2018-08-23T20:43:02.126Z,95240.11
2018-08-23T20:45:28.159Z,95245.83
2018-08-23T20:47:54.073Z,95247.62
2018-08-23T20:50:20.074Z,95247.22
2018-08-23T20:52:46.162Z,95243.06
2018-08-23T20:55:12.026Z,95250.39
2018-08-23T20:57:38.005Z,95246.81
2018-08-23T21:00:04.026Z,95245.83
2018-08-23T21:02:30.001Z,95242.66
2018-08-23T21:04:56.000Z,95244.05
2018-08-23T21:07:21.975Z,95243.06
2018-08-23T21:09:48.007Z,95245.83
2018-08-23T21:12:13.945Z,95245.02
2018-08-23T21:14:39.940Z,95243.27
2018-08-23T21:17:05.928Z,95237.72
2018-08-23T21:19:31.927Z,95241.08
2018-08-23T21:21:57.898Z,95241.48
2018-08-23T21:24:23.876Z,95246.41
2018-08-23T21:26:49.856Z,95241.27
2018-08-23T21:29:15.850Z,95249.17
2018-08-23T21:31:41.844Z,95250.19
2018-08-23T21:34:07.822Z,95257.12
2018-08-23T21:36:33.818Z,95255.13
2018-08-23T21:38:59.829Z,95252.35
2018-08-23T21:41:25.793Z,95254.72
2018-08-23T21:43:51.768Z,95248.80
2018-08-23T21:46:17.751Z,95250.56
2018-08-23T21:48:43.741Z,95252.97
2018-08-23T21:51:09.721Z,95254.34
2018-08-23T21:53:35.723Z,95248.80
2018-08-23T21:56:01.705Z,95248.00
2018-08-23T21:58:27.685Z,95249.58
2018-08-23T22:00:53.664Z,95249.58
2018-08-23T22:03:19.657Z,95255.13
2018-08-23T22:05:45.639Z,95250.56
2018-08-23T22:08:11.617Z,95252.56
2018-08-23T22:10:37.627Z,95249.17
2018-08-23T22:13:03.609Z,95247.02
2018-08-23T22:15:29.590Z,95249.17
2018-08-23T22:17:55.568Z,95248.80
2018-08-23T22:20:21.546Z,95253.54
2018-08-23T22:22:47.523Z,95250.77
2018-08-23T22:25:13.510Z,95248.80
2018-08-23T22:27:39.492Z,95249.38
2018-08-23T22:30:05.506Z,95251.58
2018-08-23T22:32:31.491Z,95250.19
2018-08-23T22:34:57.469Z,95252.56
2018-08-23T22:37:23.448Z,95244.83
2018-08-23T22:39:49.430Z,95248.98
2018-08-23T22:42:15.405Z,95244.25
2018-08-23T22:44:41.426Z,95241.48
2018-08-23T22:47:07.404Z,95235.13
2018-08-23T22:49:33.381Z,95236.92
2018-08-23T22:51:59.360Z,95237.50
2018-08-23T22:54:25.339Z,95237.91
2018-08-23T22:56:51.309Z,95236.11
2018-08-23T22:59:17.292Z,95234.73
2018-08-23T23:01:43.270Z,95243.84
2018-08-23T23:04:09.252Z,95240.67
2018-08-23T23:06:35.239Z,95234.73
2018-08-23T23:09:01.220Z,95241.65
2018-08-23T23:11:27.217Z,95239.69
2018-08-23T23:13:53.164Z,95235.13
2018-08-23T23:16:19.191Z,95234.15
2018-08-23T23:18:45.117Z,95229.19
2018-08-23T23:21:11.092Z,95231.78
2018-08-23T23:23:37.075Z,95234.15
2018-08-23T23:26:03.055Z,95239.11
2018-08-23T23:28:29.035Z,95238.70
2018-08-23T23:30:55.007Z,95238.30
2018-08-23T23:33:20.991Z,95234.55
2018-08-23T23:35:46.972Z,95232.77
2018-08-23T23:38:12.942Z,95228.20
2018-08-23T23:40:38.916Z,95223.47
2018-08-23T23:43:04.901Z,95222.66
2018-08-23T23:45:30.874Z,95221.28
2018-08-23T23:47:56.852Z,95222.09
2018-08-23T23:50:22.834Z,95217.52
2018-08-23T23:52:48.819Z,95218.33
2018-08-23T23:55:14.802Z,95220.30
2018-08-23T23:57:40.794Z,95217.93
